Wyeville, Wisconsin
Current Conditions -  °F | °C
As of 11:35 AM on Monday 24 Nov 2014 (Local Time) from KCMY Reporting Station
Light Snow Light Snow  
Wind Chill: 20°   Ceiling: 500
Heat Index: 29°   Visibility: 0.75mi
Dew Point: 28°   Wind: 10mph
Humidity: 96%   Direction: 280°W
Pressure: 29.3"   Gusts: 21mph
Location:  44.0237°N, 90.4921°W
Report Text: KCMY 241735Z AUTO 28009G18KT 3/4SM -SN VV005 M01/M02 A2930 RMK AO2 T10151021
Loading
Personal Weather Stations






























Interactive Weather Map New forecast layout! Learn more

10-Day Weather Forecast

Advertisements
Track Severe Weather on mobile